Time;durP1;ratioP1;P1;durP2;ratioP2;P2;SDS_P1;SDS_P2;PMS_P1;PMS_P2;Temp;Humidity;BMP_temperature;BMP_pressure;BME280_temperature;BME280_humidity;BME280_pressure;Samples;Min_cycle;Max_cycle;Signal;HPM_P1;HPM_P2
2022/11/09 00:00:04;;;;;;;4.50;3.70;;;;;;;22.21;54.73;97237.94;5051793;28;20204;-31
2022/11/09 00:02:31;;;;;;;4.30;3.90;;;;;;;22.27;54.62;97236.41;5057077;28;20228;-31
2022/11/09 00:04:57;;;;;;;4.57;3.80;;;;;;;22.27;54.57;97246.63;5058282;28;20208;-31
2022/11/09 00:07:23;;;;;;;4.37;3.97;;;;;;;22.27;54.79;97238.09;5056792;28;20692;-31
2022/11/09 00:09:50;;;;;;;4.97;3.67;;;;;;;22.27;54.58;97240.66;5053843;28;20235;-31
2022/11/09 00:12:17;;;;;;;5.07;3.97;;;;;;;22.26;54.55;97234.66;5058423;28;20274;-31
2022/11/09 00:14:43;;;;;;;4.60;4.13;;;;;;;22.27;54.70;97240.66;5056414;28;20208;-31
2022/11/09 00:17:10;;;;;;;4.90;4.40;;;;;;;22.24;54.40;97227.78;5055075;28;20205;-31
2022/11/09 00:19:36;;;;;;;4.37;3.97;;;;;;;22.26;54.67;97226.97;5058188;28;20193;-31
2022/11/09 00:22:03;;;;;;;4.00;3.60;;;;;;;22.23;54.74;97232.03;5058257;28;20534;-31
2022/11/09 00:24:29;;;;;;;4.50;4.10;;;;;;;22.25;54.72;97235.50;5058640;28;20664;-31
2022/11/09 00:26:56;;;;;;;4.63;4.20;;;;;;;22.26;54.56;97221.00;5059321;28;20323;-31
2022/11/09 00:29:22;;;;;;;4.13;3.70;;;;;;;22.24;54.31;97212.41;5056582;28;20228;-31
2022/11/09 00:31:49;;;;;;;3.60;3.30;;;;;;;22.26;54.63;97223.56;5060109;28;20649;-31
2022/11/09 00:34:16;;;;;;;4.70;3.50;;;;;;;22.21;54.75;97220.03;5057945;28;20729;-31
2022/11/09 00:36:42;;;;;;;4.37;3.97;;;;;;;22.25;54.57;97224.38;5059037;28;20231;-31
2022/11/09 00:39:08;;;;;;;4.10;3.70;;;;;;;22.25;54.56;97222.69;5058610;28;20201;-31
2022/11/09 00:41:35;;;;;;;4.77;4.10;;;;;;;22.25;54.63;97230.38;5057245;28;20243;-31
2022/11/09 00:44:02;;;;;;;4.40;3.47;;;;;;;22.25;54.69;97224.38;5054750;28;20753;-31
2022/11/09 00:46:28;;;;;;;4.30;3.87;;;;;;;22.26;54.51;97221.84;5059964;28;20512;-31
2022/11/09 00:48:55;;;;;;;3.83;3.53;;;;;;;22.22;54.45;97214.94;5055010;28;20282;-31
2022/11/09 00:51:21;;;;;;;4.63;3.90;;;;;;;22.25;54.52;97207.34;5057025;28;20226;-31
2022/11/09 00:53:52;;;;;;;4.23;3.83;;;;;;;22.25;54.55;97204.78;5054854;28;20201;-31
2022/11/09 00:56:19;;;;;;;4.70;4.20;;;;;;;22.19;54.31;97199.53;5060969;28;20434;-31
2022/11/09 00:58:45;;;;;;;4.13;3.67;;;;;;;22.23;54.56;97203.03;5050112;28;20208;-31
2022/11/09 01:01:14;;;;;;;4.20;3.80;;;;;;;22.25;54.54;97214.13;5061456;28;20232;-31
2022/11/09 01:03:41;;;;;;;4.07;3.60;;;;;;;22.22;54.30;97203.84;5058468;28;20196;-31
2022/11/09 01:06:08;;;;;;;3.97;3.60;;;;;;;22.24;54.61;97207.31;5055945;28;20211;-31
2022/11/09 01:08:34;;;;;;;4.07;3.67;;;;;;;22.20;54.18;97205.53;5059875;28;20629;-31
2022/11/09 01:11:05;;;;;;;4.20;3.80;;;;;;;22.25;54.33;97216.69;5052715;28;20684;-31
2022/11/09 01:13:32;;;;;;;4.23;3.63;;;;;;;22.26;54.50;97221.00;5050437;28;20205;-31
2022/11/09 01:15:58;;;;;;;4.40;3.70;;;;;;;22.24;54.52;97215.84;5059125;28;20703;-31
2022/11/09 01:18:25;;;;;;;5.47;3.77;;;;;;;22.24;54.42;97223.53;5052423;28;20597;-31
2022/11/09 01:20:51;;;;;;;4.07;3.60;;;;;;;22.23;54.58;97220.94;5052773;28;20288;-31
2022/11/09 01:23:19;;;;;;;4.27;3.87;;;;;;;22.18;54.58;97212.28;5055697;28;20203;-31
2022/11/09 01:25:46;;;;;;;4.80;4.30;;;;;;;22.26;54.37;97228.69;5049276;28;20223;-31
2022/11/09 01:28:12;;;;;;;3.60;3.30;;;;;;;22.26;54.29;97228.69;5049603;28;20205;-31
2022/11/09 01:30:40;;;;;;;4.50;3.73;;;;;;;22.25;54.41;97232.06;5058235;28;20622;-31
2022/11/09 01:33:08;;;;;;;4.00;3.60;;;;;;;22.25;54.14;97232.94;5057078;28;20223;-31
2022/11/09 01:35:36;;;;;;;5.10;4.20;;;;;;;22.25;54.24;97235.50;5055075;28;20215;-31
2022/11/09 01:38:03;;;;;;;3.73;3.43;;;;;;;22.25;54.35;97232.94;5056014;28;20209;-31
2022/11/09 01:40:30;;;;;;;3.57;3.27;;;;;;;22.25;54.26;97230.38;5048093;28;20686;-31
2022/11/09 01:42:56;;;;;;;4.30;3.80;;;;;;;22.25;54.17;97235.50;5055183;28;20234;-31
2022/11/09 01:45:24;;;;;;;4.23;3.83;;;;;;;22.25;54.27;97232.06;5057304;28;20201;-31
2022/11/09 01:48:08;;;;;;;4.07;3.70;;;;;;;22.24;54.27;97236.34;5047244;28;20285;-31
2022/11/09 01:50:41;;;;;;;4.33;3.90;;;;;;;22.25;54.26;97232.06;5039521;28;20207;-31
2022/11/09 01:53:11;;;;;;;4.30;3.90;;;;;;;22.24;54.25;97233.78;5055990;28;20228;-31
2022/11/09 01:55:38;;;;;;;3.73;3.43;;;;;;;22.24;54.23;97236.34;5053059;28;20246;-31
2022/11/09 01:58:11;;;;;;;3.80;3.40;;;;;;;22.20;54.33;97234.53;5053675;28;20220;-32
2022/11/09 02:00:38;;;;;;;4.03;3.63;;;;;;;22.25;54.23;97235.50;5028505;28;20208;-31
2022/11/09 02:03:07;;;;;;;3.83;3.50;;;;;;;22.24;54.23;97243.13;5036515;28;20412;-31
2022/11/09 02:05:34;;;;;;;5.53;3.73;;;;;;;22.11;54.26;97216.41;5047953;28;20237;-31
2022/11/09 02:08:00;;;;;;;4.53;3.80;;;;;;;22.16;54.39;97221.63;5043806;28;20674;-31
2022/11/09 02:11:07;;;;;;;5.07;3.80;;;;;;;22.15;54.09;97217.34;5049287;28;20216;-31
2022/11/09 02:13:36;;;;;;;4.30;3.33;;;;;;;22.24;54.17;97232.91;5052610;28;20223;-31
2022/11/09 02:16:02;;;;;;;4.17;3.70;;;;;;;22.14;54.00;97213.91;5037592;28;20221;-31
2022/11/09 02:18:29;;;;;;;4.67;4.27;;;;;;;22.24;53.89;97222.66;5049515;28;20215;-31
2022/11/09 02:20:56;;;;;;;3.90;3.60;;;;;;;22.24;53.94;97209.88;5057103;28;20209;-30
2022/11/09 02:23:24;;;;;;;4.50;3.90;;;;;;;22.25;53.97;97211.56;5058305;28;20593;-31
2022/11/09 02:25:53;;;;;;;4.10;3.70;;;;;;;22.22;53.90;97203.84;5052229;28;20197;-31
2022/11/09 02:28:20;;;;;;;3.93;3.53;;;;;;;22.23;54.11;97209.00;5062326;28;20201;-31
2022/11/09 02:30:48;;;;;;;6.10;3.57;;;;;;;22.21;54.32;97208.13;5048035;28;20205;-31
2022/11/09 02:33:15;;;;;;;4.70;3.43;;;;;;;22.21;54.01;97208.13;5058127;28;20622;-31
2022/11/09 02:35:42;;;;;;;5.90;4.10;;;;;;;22.22;53.88;97203.84;5063602;28;20281;-31
2022/11/09 02:38:09;;;;;;;3.97;3.57;;;;;;;22.23;53.94;97208.16;5057942;28;20208;-31
2022/11/09 02:40:37;;;;;;;4.73;3.27;;;;;;;22.23;54.07;97206.44;5056560;28;20202;-31
2022/11/09 02:43:04;;;;;;;4.47;3.80;;;;;;;22.24;54.22;97214.97;5058101;28;20714;-31
2022/11/09 02:45:30;;;;;;;4.17;3.80;;;;;;;22.22;54.12;97214.94;5059057;28;20201;-31
2022/11/09 02:47:57;;;;;;;4.70;3.90;;;;;;;22.24;54.27;97225.22;5061370;28;21031;-31
2022/11/09 02:50:23;;;;;;;3.77;3.47;;;;;;;22.23;54.27;97223.50;5058164;28;20217;-32
2022/11/09 02:52:50;;;;;;;4.60;3.37;;;;;;;22.22;54.04;97216.63;5056014;28;20706;-31
2022/11/09 02:55:17;;;;;;;3.93;3.53;;;;;;;22.20;53.97;97216.59;5062549;28;20215;-31
2022/11/09 02:57:43;;;;;;;3.90;3.50;;;;;;;22.23;53.97;97221.78;5057917;28;20710;-31
2022/11/09 03:00:10;;;;;;;3.60;3.30;;;;;;;22.23;53.78;97221.78;5064297;28;20208;-31
2022/11/09 03:02:37;;;;;;;4.67;3.60;;;;;;;22.20;53.92;97210.63;5058871;28;20220;-31
2022/11/09 03:05:03;;;;;;;3.63;3.33;;;;;;;22.24;53.81;97220.09;5060777;28;20216;-31
2022/11/09 03:07:31;;;;;;;4.07;3.67;;;;;;;22.20;53.92;97210.63;5054700;28;20212;-31
2022/11/09 03:09:57;;;;;;;4.40;3.77;;;;;;;22.23;53.91;97215.81;5054701;28;20228;-30
2022/11/09 03:12:30;;;;;;;3.57;3.27;;;;;;;22.23;54.08;97214.09;5054631;28;20216;-31
2022/11/09 03:14:57;;;;;;;3.83;3.43;;;;;;;22.22;54.17;97219.19;5057113;28;20219;-31
2022/11/09 03:17:24;;;;;;;3.80;3.50;;;;;;;22.24;54.04;97217.53;5059173;28;20205;-31
2022/11/09 03:19:51;;;;;;;4.00;3.60;;;;;;;22.20;53.85;97213.19;5055527;28;20675;-31
2022/11/09 03:22:17;;;;;;;3.03;2.77;;;;;;;22.23;54.00;97215.81;5058274;28;20589;-31
2022/11/09 03:24:44;;;;;;;3.80;3.50;;;;;;;22.20;54.09;97211.47;5055626;28;20201;-31
2022/11/09 03:27:10;;;;;;;5.83;3.40;;;;;;;22.20;54.13;97203.81;5057503;28;20674;-31
2022/11/09 03:29:37;;;;;;;3.47;3.17;;;;;;;22.22;53.93;97217.50;5053087;28;20295;-31
2022/11/09 03:32:04;;;;;;;4.07;3.40;;;;;;;22.17;54.15;97202.91;5058822;28;20231;-31
2022/11/09 03:34:30;;;;;;;3.70;3.40;;;;;;;22.23;54.01;97218.38;5058109;28;20200;-31
2022/11/09 03:36:57;;;;;;;3.70;3.40;;;;;;;22.22;53.79;97214.94;5057030;28;20608;-31
2022/11/09 03:39:23;;;;;;;4.80;3.77;;;;;;;22.22;53.87;97217.50;5056108;28;20200;-31
2022/11/09 03:41:50;;;;;;;3.83;3.30;;;;;;;22.22;53.74;97216.63;5058723;28;20714;-31
2022/11/09 03:44:16;;;;;;;4.10;3.70;;;;;;;22.22;53.67;97220.06;5047677;28;20219;-31
2022/11/09 03:46:43;;;;;;;4.10;3.63;;;;;;;22.22;53.59;97219.19;5057121;28;20213;-31
2022/11/09 03:49:09;;;;;;;3.60;3.30;;;;;;;22.23;53.66;97218.38;5057914;28;20229;-31
2022/11/09 03:51:36;;;;;;;4.00;3.60;;;;;;;22.23;53.78;97213.25;5058802;28;20714;-31
2022/11/09 03:54:02;;;;;;;3.80;3.40;;;;;;;22.23;53.78;97213.25;5046948;28;20678;-31
2022/11/09 03:56:29;;;;;;;3.63;3.30;;;;;;;22.17;53.71;97200.34;5054223;28;20219;-31
2022/11/09 03:58:55;;;;;;;4.27;3.33;;;;;;;22.21;53.88;97208.13;5054001;28;20709;-31
2022/11/09 04:01:22;;;;;;;3.43;3.13;;;;;;;22.22;53.98;97207.28;5053473;28;20220;-31
2022/11/09 04:03:48;;;;;;;3.50;3.20;;;;;;;22.21;53.08;97213.22;5048977;28;20205;-31
2022/11/09 04:06:15;;;;;;;3.50;3.20;;;;;;;22.22;53.92;97209.81;5054203;28;20666;-31
2022/11/09 04:08:42;;;;;;;3.60;3.30;;;;;;;22.21;53.84;97200.44;5056222;28;20223;-31
2022/11/09 04:11:15;;;;;;;3.63;3.33;;;;;;;22.22;53.70;97203.84;5054286;28;20307;-31
2022/11/09 04:13:42;;;;;;;3.47;3.10;;;;;;;22.22;53.73;97206.41;5053710;28;20216;-31
2022/11/09 04:16:08;;;;;;;3.50;3.20;;;;;;;22.21;53.90;97205.56;5054366;28;20209;-31
2022/11/09 04:18:35;;;;;;;4.03;3.63;;;;;;;22.22;53.75;97208.94;5060047;28;20205;-31
2022/11/09 04:21:01;;;;;;;4.03;3.40;;;;;;;22.21;53.55;97209.78;5056969;28;20203;-31
2022/11/09 04:23:28;;;;;;;3.63;3.33;;;;;;;22.18;53.47;97194.38;5062393;28;20654;-31
2022/11/09 04:25:56;;;;;;;4.20;3.40;;;;;;;22.22;53.33;97198.72;5058979;28;20200;-31
2022/11/09 04:28:23;;;;;;;3.60;3.30;;;;;;;22.21;53.51;97205.56;5060099;28;20598;-31
2022/11/09 04:30:49;;;;;;;7.20;3.43;;;;;;;22.21;53.41;97210.66;5056281;28;20426;-31
2022/11/09 04:33:16;;;;;;;3.57;3.27;;;;;;;22.21;53.47;97207.25;5049669;28;20219;-31
2022/11/09 04:35:43;;;;;;;3.30;3.03;;;;;;;22.21;53.43;97204.69;5053915;28;20211;-31
2022/11/09 04:38:11;;;;;;;4.03;3.63;;;;;;;22.21;53.41;97208.13;5055037;28;20205;-31
2022/11/09 04:40:38;;;;;;;5.23;3.43;;;;;;;22.21;53.57;97214.91;5052305;28;20197;-31
2022/11/09 04:43:06;;;;;;;3.70;3.40;;;;;;;22.20;53.55;97224.28;5053682;28;20579;-31
2022/11/09 04:45:33;;;;;;;3.73;3.30;;;;;;;22.21;53.43;97230.28;5055586;28;20205;-31
2022/11/09 04:48:00;;;;;;;3.90;3.50;;;;;;;22.20;53.38;97226.84;5056831;28;20614;-31
2022/11/09 04:50:27;;;;;;;3.70;3.40;;;;;;;22.21;53.59;97236.28;5057767;28;20235;-31
2022/11/09 04:52:53;;;;;;;3.50;3.20;;;;;;;22.16;53.30;97225.06;5054562;28;20231;-31
2022/11/09 04:55:20;;;;;;;3.37;3.07;;;;;;;22.22;53.36;97234.56;5051217;28;20208;-31
2022/11/09 04:57:46;;;;;;;3.50;3.20;;;;;;;22.21;53.49;97230.28;5049661;28;20660;-31
2022/11/09 05:00:13;;;;;;;3.77;3.13;;;;;;;22.21;53.43;97228.59;5050255;28;20201;-31
2022/11/09 05:02:39;;;;;;;4.80;3.50;;;;;;;22.21;53.45;97233.72;5053685;28;20573;-31
2022/11/09 05:05:06;;;;;;;3.97;3.53;;;;;;;22.21;53.37;97241.38;5053997;28;20229;-31
2022/11/09 05:07:33;;;;;;;4.13;3.43;;;;;;;22.19;53.04;97234.47;5059200;28;20208;-31
2022/11/09 05:09:59;;;;;;;4.10;3.60;;;;;;;22.20;53.19;97234.53;5047928;28;20220;-31
2022/11/09 05:12:25;;;;;;;3.90;3.60;;;;;;;22.22;53.25;97237.13;5053602;28;20223;-31
2022/11/09 05:14:52;;;;;;;4.00;3.57;;;;;;;22.21;53.01;97228.59;5048495;28;20672;-31
2022/11/09 05:17:18;;;;;;;3.83;3.40;;;;;;;22.18;53.09;97228.53;5055896;28;20197;-31
2022/11/09 05:19:45;;;;;;;4.00;3.60;;;;;;;22.22;53.38;97238.00;5052718;28;20226;-31
2022/11/09 05:24:56;;;;;;;3.53;3.23;;;;;;;22.22;53.19;97249.91;5051119;28;20216;-31
2022/11/09 05:27:23;;;;;;;3.87;3.57;;;;;;;22.21;53.36;97245.63;5055816;28;20603;-31
2022/11/09 05:29:49;;;;;;;3.73;3.37;;;;;;;22.23;53.29;97264.47;5054391;28;20221;-31
2022/11/09 05:32:16;;;;;;;4.00;3.60;;;;;;;22.21;53.37;97256.75;5051504;28;20220;-31
2022/11/09 05:34:42;;;;;;;3.60;3.30;;;;;;;22.21;53.51;97254.19;5053899;28;20208;-31
2022/11/09 05:37:09;;;;;;;3.80;3.47;;;;;;;22.21;53.45;97258.44;5053311;28;20212;-31
2022/11/09 05:39:35;;;;;;;3.40;3.10;;;;;;;22.21;53.36;97263.56;5057308;28;20515;-31
2022/11/09 05:42:02;;;;;;;3.93;3.50;;;;;;;22.22;53.46;97260.16;5057396;28;20708;-31
2022/11/09 05:44:29;;;;;;;5.03;3.57;;;;;;;22.21;53.48;97261.88;5060628;28;20211;-31
2022/11/09 05:46:56;;;;;;;4.80;3.67;;;;;;;22.22;53.29;97258.47;5059210;28;20207;-31
2022/11/09 05:49:22;;;;;;;3.80;3.40;;;;;;;22.21;53.12;97254.19;5061448;28;20689;-31
2022/11/09 05:51:48;;;;;;;3.60;3.30;;;;;;;22.22;53.20;97261.03;5059864;28;20221;-31
2022/11/09 05:54:15;;;;;;;4.13;3.73;;;;;;;22.21;53.03;97266.97;5060507;28;20565;-31
2022/11/09 05:56:41;;;;;;;4.00;3.23;;;;;;;22.21;52.98;97274.66;5054984;28;20728;-31
2022/11/09 05:59:08;;;;;;;4.50;3.70;;;;;;;22.21;53.18;97272.09;5057749;28;20205;-31
2022/11/09 06:01:35;;;;;;;4.23;3.83;;;;;;;22.23;53.07;97284.94;5058360;28;20223;-31
2022/11/09 06:04:01;;;;;;;3.80;3.50;;;;;;;22.22;53.25;97288.31;5056151;28;20743;-31
2022/11/09 06:06:28;;;;;;;3.97;3.17;;;;;;;22.23;53.03;97297.75;5059410;28;20212;-31
2022/11/09 06:08:55;;;;;;;3.70;3.40;;;;;;;22.17;53.28;97288.19;5056130;28;20220;-31
2022/11/09 06:11:22;;;;;;;4.03;3.43;;;;;;;22.22;53.35;97294.31;5054354;28;20224;-31
2022/11/09 06:13:51;;;;;;;3.67;3.33;;;;;;;22.22;53.20;97294.31;5048041;28;20193;-31
2022/11/09 06:16:17;;;;;;;4.00;3.60;;;;;;;22.17;53.24;97283.09;5056514;28;20212;-31
2022/11/09 06:18:44;;;;;;;3.93;3.63;;;;;;;22.18;53.31;97287.41;5055015;28;20785;-31
2022/11/09 06:21:10;;;;;;;6.00;3.70;;;;;;;22.21;53.18;97295.13;5056930;28;20213;-31
2022/11/09 06:23:37;;;;;;;6.90;3.57;;;;;;;22.20;53.16;97310.47;5057221;28;20212;-31
2022/11/09 06:26:08;;;;;;;4.13;3.47;;;;;;;22.19;53.57;97301.03;5055346;28;20669;-31
2022/11/09 06:28:38;;;;;;;8.20;3.50;;;;;;;22.22;53.27;97314.78;5054756;28;20200;-31
2022/11/09 06:31:06;;;;;;;4.70;3.60;;;;;;;22.22;53.03;97317.34;5058424;28;20637;-32
2022/11/09 06:33:33;;;;;;;5.53;4.03;;;;;;;22.23;52.94;97321.63;5061443;28;20197;-31
2022/11/09 06:36:00;;;;;;;11.27;4.00;;;;;;;22.20;52.86;97313.88;5062136;28;20208;-31
2022/11/09 06:38:26;;;;;;;4.77;3.70;;;;;;;22.23;53.00;97308.81;5058065;28;20207;-31
2022/11/09 06:40:54;;;;;;;4.70;3.60;;;;;;;22.23;52.83;97310.53;5051426;28;20668;-31
2022/11/09 06:43:21;;;;;;;5.77;3.43;;;;;;;22.18;52.97;97304.44;5057016;28;20698;-31
2022/11/09 06:45:48;;;;;;;4.73;3.60;;;;;;;22.21;52.95;97319.88;5054883;28;20201;-31
2022/11/09 06:48:14;;;;;;;5.30;3.70;;;;;;;22.23;53.30;97324.19;5054791;28;20680;-31
2022/11/09 06:50:41;;;;;;;6.13;3.43;;;;;;;22.23;53.04;97329.31;5050660;28;20217;-31
2022/11/09 06:53:10;;;;;;;4.33;3.50;;;;;;;22.23;53.17;97338.69;5055736;28;20691;-31
2022/11/09 06:55:37;;;;;;;8.07;3.87;;;;;;;22.24;53.04;97340.41;5055883;28;20201;-31
2022/11/09 06:58:07;;;;;;;6.10;4.07;;;;;;;22.23;52.88;97347.22;5056288;28;20212;-31
2022/11/09 07:00:34;;;;;;;6.40;3.70;;;;;;;22.25;52.95;97360.06;5044736;28;20197;-31
2022/11/09 07:03:00;;;;;;;7.50;4.30;;;;;;;22.22;52.90;97365.09;5058700;28;20633;-31
2022/11/09 07:05:27;;;;;;;10.10;5.40;;;;;;;22.24;50.87;97363.47;5057251;28;20211;-31
2022/11/09 07:07:54;;;;;;;7.50;5.00;;;;;;;22.24;48.58;97371.13;5061691;28;20205;-31
2022/11/09 07:10:20;;;;;;;11.93;5.97;;;;;;;22.18;48.18;97359.06;5044985;28;20736;-31
2022/11/09 07:12:47;;;;;;;13.00;5.73;;;;;;;22.21;48.33;97363.38;5039280;28;20231;-31
2022/11/09 07:15:13;;;;;;;11.17;5.20;;;;;;;22.19;48.89;97354.78;5054965;28;20212;-31
2022/11/09 07:17:40;;;;;;;12.73;5.10;;;;;;;22.21;49.55;97359.13;5051086;28;20205;-31
2022/11/09 07:20:07;;;;;;;7.53;5.13;;;;;;;22.20;49.90;97359.94;5053830;28;20197;-31
2022/11/09 07:22:38;;;;;;;9.23;5.07;;;;;;;22.21;50.09;97363.38;5046568;28;20220;-31
2022/11/09 07:25:06;;;;;;;11.13;5.43;;;;;;;22.20;50.43;97361.66;5046939;28;20212;-32
2022/11/09 07:27:32;;;;;;;9.50;4.57;;;;;;;22.16;50.62;97350.47;5047392;28;20213;-31
2022/11/09 07:29:59;;;;;;;8.17;4.83;;;;;;;22.20;51.11;97351.41;5045979;28;20229;-31
2022/11/09 07:32:25;;;;;;;6.03;4.60;;;;;;;22.18;51.18;97340.28;5046308;28;20227;-31
2022/11/09 07:35:12;;;;;;;7.10;4.47;;;;;;;22.20;51.12;97347.16;5045819;28;20211;-31
2022/11/09 07:37:38;;;;;;;6.37;4.30;;;;;;;22.20;51.21;97362.50;5046124;28;20690;-31
2022/11/09 07:40:06;;;;;;;9.73;4.87;;;;;;;22.20;51.35;97370.19;5045465;28;20205;-31
2022/11/09 07:42:32;;;;;;;5.73;4.33;;;;;;;22.19;51.62;97360.78;5050281;28;20220;-31
2022/11/09 07:44:59;;;;;;;6.20;4.90;;;;;;;22.20;51.54;97362.50;5052224;28;20204;-31
2022/11/09 07:47:25;;;;;;;6.03;4.47;;;;;;;22.14;51.80;97353.84;5048327;28;20582;-31
2022/11/09 07:49:52;;;;;;;6.53;4.60;;;;;;;22.19;51.75;97373.59;5036800;28;20213;-31
2022/11/09 07:52:18;;;;;;;6.47;4.63;;;;;;;22.17;52.11;97356.47;5045594;28;20224;-31
2022/11/09 07:54:45;;;;;;;10.63;4.47;;;;;;;22.19;51.90;97368.47;5047318;28;20209;-31
2022/11/09 07:57:17;;;;;;;5.13;3.80;;;;;;;22.21;51.81;97363.38;5052023;28;20208;-31
2022/11/09 07:59:44;;;;;;;6.13;4.23;;;;;;;22.20;51.76;97379.56;5045260;28;20719;-31
2022/11/09 08:02:10;;;;;;;5.43;4.70;;;;;;;22.20;51.84;97382.13;5041098;28;20225;-31
2022/11/09 08:04:38;;;;;;;7.73;4.47;;;;;;;22.21;51.86;97376.19;5049268;28;20205;-31
2022/11/09 08:07:04;;;;;;;9.13;4.23;;;;;;;22.22;51.67;97370.22;5045325;28;20220;-31
2022/11/09 08:09:31;;;;;;;5.90;4.60;;;;;;;22.22;52.01;97377.91;5055419;28;20488;-31
2022/11/09 08:11:57;;;;;;;6.67;4.30;;;;;;;22.21;51.93;97381.31;5054956;28;20599;-31
2022/11/09 08:14:24;;;;;;;6.73;4.13;;;;;;;22.21;51.99;97376.19;5054078;28;20209;-31
2022/11/09 08:16:51;;;;;;;4.50;4.10;;;;;;;22.22;52.46;97381.34;5045011;28;20205;-31
2022/11/09 08:19:17;;;;;;;4.43;3.90;;;;;;;22.22;51.90;97377.91;5051439;28;20212;-31
2022/11/09 08:21:44;;;;;;;6.07;4.00;;;;;;;22.22;51.81;97383.91;5052529;28;20316;-31
2022/11/09 08:24:10;;;;;;;7.87;3.93;;;;;;;22.22;52.20;97372.78;5046910;28;20694;-31
2022/11/09 08:26:37;;;;;;;5.23;4.30;;;;;;;22.20;51.78;97357.38;5051502;28;20205;-31
2022/11/09 08:29:03;;;;;;;4.60;4.20;;;;;;;22.17;52.05;97375.22;5052915;28;20569;-31
2022/11/09 08:31:30;;;;;;;6.10;3.80;;;;;;;22.22;52.05;97371.09;5042860;28;20236;-31
2022/11/09 08:33:56;;;;;;;7.03;4.20;;;;;;;22.22;52.09;97380.47;5042812;28;20209;-31
2022/11/09 08:36:25;;;;;;;5.67;4.10;;;;;;;22.23;52.01;97390.75;5046477;28;20203;-31
2022/11/09 08:38:51;;;;;;;4.53;3.67;;;;;;;22.22;52.17;97383.03;5046251;28;20216;-31
2022/11/09 08:41:18;;;;;;;7.07;4.10;;;;;;;22.23;52.27;97377.94;5054691;28;20227;-31
2022/11/09 08:43:44;;;;;;;6.83;4.53;;;;;;;22.24;51.93;97378.81;5049566;28;20212;-31
2022/11/09 08:46:11;;;;;;;8.83;4.80;;;;;;;22.23;51.33;97398.41;5044062;28;20471;-31
2022/11/09 08:48:38;;;;;;;7.00;4.93;;;;;;;22.21;51.28;97388.97;5046206;28;20638;-31
2022/11/09 08:51:05;;;;;;;11.67;5.13;;;;;;;22.23;51.34;97395.00;5049892;28;20687;-31
2022/11/09 08:53:31;;;;;;;7.47;4.93;;;;;;;22.16;51.52;97383.75;5054217;28;20203;-31
2022/11/09 08:55:58;;;;;;;10.83;4.73;;;;;;;22.22;51.34;97394.13;5049274;28;20216;-31
2022/11/09 08:58:24;;;;;;;4.87;4.23;;;;;;;22.20;51.65;97384.69;5046124;28;20623;-31
2022/11/09 09:00:51;;;;;;;5.10;3.83;;;;;;;22.21;51.74;97389.84;5048135;28;20212;-31
2022/11/09 09:03:17;;;;;;;6.27;4.20;;;;;;;22.22;51.72;97398.38;5043034;28;20260;-31
2022/11/09 09:05:44;;;;;;;5.60;4.03;;;;;;;22.22;51.82;97391.56;5052808;28;20201;-31
2022/11/09 09:08:14;;;;;;;7.83;4.27;;;;;;;22.19;52.11;97394.06;5041068;28;20296;-31
2022/11/09 09:10:41;;;;;;;6.47;4.03;;;;;;;22.21;51.85;97394.97;5049956;28;20723;-31
2022/11/09 09:13:07;;;;;;;4.80;4.30;;;;;;;22.22;52.04;97394.13;5047754;28;20712;-31
2022/11/09 09:15:34;;;;;;;4.27;3.50;;;;;;;22.21;51.98;97405.22;5042354;28;20223;-31
2022/11/09 09:18:01;;;;;;;6.63;4.07;;;;;;;22.22;52.01;97403.50;5055103;28;20205;-31
2022/11/09 09:20:28;;;;;;;6.90;4.20;;;;;;;22.22;51.90;97393.25;5057089;28;20557;-31
2022/11/09 09:22:57;;;;;;;6.03;4.47;;;;;;;22.23;52.08;97407.81;5053886;28;20224;-31
2022/11/09 09:25:23;;;;;;;7.07;4.77;;;;;;;22.22;52.04;97398.38;5060145;28;20207;-31
2022/11/09 09:27:50;;;;;;;6.37;4.10;;;;;;;22.23;52.14;97418.06;5044555;28;20612;-31
2022/11/09 09:30:16;;;;;;;5.80;4.10;;;;;;;22.20;51.97;97415.41;5054904;28;20216;-31
2022/11/09 09:32:43;;;;;;;6.33;4.03;;;;;;;22.17;52.19;97415.34;5051994;28;20224;-31
2022/11/09 09:35:10;;;;;;;4.73;3.97;;;;;;;22.22;52.43;97424.84;5061604;28;20254;-31
2022/11/09 09:37:36;;;;;;;4.33;3.93;;;;;;;22.22;52.13;97427.41;5052403;28;20204;-31
2022/11/09 09:40:03;;;;;;;5.97;4.00;;;;;;;22.22;52.16;97422.28;5046860;28;20200;-31
2022/11/09 09:42:41;;;;;;;6.60;3.97;;;;;;;22.21;52.33;97418.00;5050233;28;20593;-31
2022/11/09 09:45:34;;;;;;;4.87;3.90;;;;;;;22.20;52.27;97420.53;5047768;28;20225;-31
2022/11/09 09:48:35;;;;;;;5.33;3.97;;;;;;;22.22;52.23;97422.28;5036494;28;20209;-32
2022/11/09 09:51:24;;;;;;;5.83;3.90;;;;;;;22.20;52.28;97420.53;5045598;28;20715;-31
2022/11/09 09:54:24;;;;;;;5.27;3.97;;;;;;;22.19;52.41;97419.66;5047100;28;20590;-31
2022/11/09 09:56:53;;;;;;;4.27;3.80;;;;;;;22.22;52.24;97423.97;5038868;28;20204;-31
2022/11/09 09:59:40;;;;;;;6.67;4.40;;;;;;;22.13;52.41;97399.03;5050181;28;20215;-31
2022/11/09 10:02:36;;;;;;;5.27;3.63;;;;;;;22.21;52.35;97418.00;5049021;28;20589;-31
2022/11/09 10:05:06;;;;;;;4.67;3.70;;;;;;;22.22;52.59;97406.94;5047565;28;20204;-31
2022/11/09 10:08:07;;;;;;;5.10;3.90;;;;;;;22.22;52.53;97390.69;5041709;28;20193;-31
2022/11/09 10:10:45;;;;;;;4.37;3.80;;;;;;;22.21;52.65;97394.97;5048841;28;20211;-31
2022/11/09 10:13:56;;;;;;;14.60;4.17;;;;;;;22.21;52.40;97386.41;5041307;28;20225;-31
2022/11/09 10:16:39;;;;;;;5.80;4.00;;;;;;;22.21;52.58;97397.53;5043744;28;20199;-31
2022/11/09 10:19:27;;;;;;;6.17;3.83;;;;;;;22.21;52.52;97397.53;5050227;28;20197;-31
2022/11/09 10:22:01;;;;;;;6.47;3.60;;;;;;;22.20;52.70;97411.13;5051214;28;20253;-31
2022/11/09 10:24:39;;;;;;;4.10;3.70;;;;;;;22.20;52.42;97407.75;5051321;28;20201;-31
2022/11/09 10:27:45;;;;;;;4.80;4.10;;;;;;;22.20;52.59;97407.75;5052655;28;20204;-31
2022/11/09 10:30:16;;;;;;;4.23;3.70;;;;;;;22.21;52.64;97407.78;5037484;28;20712;-31
2022/11/09 10:32:49;;;;;;;5.27;3.30;;;;;;;22.09;52.63;97375.88;5046175;28;20228;-31
2022/11/09 10:35:21;;;;;;;5.73;4.03;;;;;;;22.17;52.58;97385.47;5050629;28;20200;-31
2022/11/09 10:37:48;;;;;;;7.73;4.00;;;;;;;22.19;52.58;97375.28;5051543;28;20205;-31
2022/11/09 10:40:24;;;;;;;5.00;3.63;;;;;;;22.21;52.66;97382.19;5052782;28;20205;-31
2022/11/09 10:43:05;;;;;;;5.47;3.77;;;;;;;22.19;52.46;97370.16;5049314;28;20710;-31
2022/11/09 10:45:36;;;;;;;4.27;3.87;;;;;;;21.67;52.38;97271.63;5033217;28;20212;-31
2022/11/09 10:48:03;;;;;;;4.20;3.50;;;;;;;22.12;52.43;97350.38;5050223;28;20224;-31
2022/11/09 10:50:32;;;;;;;4.83;3.80;;;;;;;22.14;52.65;97349.56;5053803;28;20196;-31
2022/11/09 10:53:25;;;;;;;4.73;3.80;;;;;;;22.22;52.57;97371.09;5048599;28;20240;-31
2022/11/09 10:56:18;;;;;;;4.10;3.67;;;;;;;22.23;52.42;97366.84;5049463;28;20305;-31
2022/11/09 10:58:48;;;;;;;4.10;3.70;;;;;;;22.23;52.44;97367.69;5056111;28;20256;-31
2022/11/09 11:01:21;;;;;;;4.43;3.37;;;;;;;22.23;52.50;97366.84;5050508;28;20584;-31
2022/11/09 11:03:49;;;;;;;4.53;3.90;;;;;;;22.22;52.55;97365.97;5044006;28;20255;-31
2022/11/09 11:06:18;;;;;;;4.23;3.70;;;;;;;22.23;52.72;97359.19;5047901;28;20205;-31
2022/11/09 11:08:46;;;;;;;4.30;3.90;;;;;;;22.23;52.77;97354.06;5056562;28;20207;-31
2022/11/09 11:11:12;;;;;;;4.23;3.83;;;;;;;22.21;52.60;97348.03;5052725;28;20216;-31
2022/11/09 11:14:23;;;;;;;4.93;3.90;;;;;;;22.23;52.80;97352.34;5047589;28;20212;-31
2022/11/09 11:16:51;;;;;;;5.37;3.50;;;;;;;22.16;52.52;97332.56;5053687;28;20200;-31
2022/11/09 11:19:37;;;;;;;4.43;3.57;;;;;;;22.23;52.75;97339.53;5054392;28;20198;-31
2022/11/09 11:22:22;;;;;;;5.63;3.63;;;;;;;22.23;52.82;97344.66;5053861;28;20213;-31
2022/11/09 11:24:53;;;;;;;5.53;4.00;;;;;;;22.23;52.82;97343.81;5052694;28;20653;-31
2022/11/09 11:27:25;;;;;;;4.87;3.60;;;;;;;22.23;52.84;97336.13;5054911;28;20223;-31
2022/11/09 11:29:54;;;;;;;6.20;3.67;;;;;;;22.23;52.69;97333.56;5046239;28;20197;-31
2022/11/09 11:32:22;;;;;;;5.10;4.27;;;;;;;22.17;52.69;97325.75;5042528;28;20250;-31
2022/11/09 11:34:48;;;;;;;4.70;3.40;;;;;;;22.21;52.75;97332.66;5055607;28;20223;-31
2022/11/09 11:38:03;;;;;;;3.43;3.07;;;;;;;22.23;52.85;97336.97;5055414;28;20559;-31
2022/11/09 11:41:07;;;;;;;5.13;3.57;;;;;;;22.23;52.65;97336.97;5065226;28;20426;-31
2022/11/09 11:43:43;;;;;;;4.27;3.80;;;;;;;22.24;52.82;97330.19;5048322;28;20247;-31
2022/11/09 11:46:32;;;;;;;8.53;3.57;;;;;;;22.23;52.80;97320.78;5045889;28;20214;-31